MKJS 160100Z 15005KT 9999 FEW022 26/22 Q1017
MKJP 160100Z 11013KT 9999 FEW022 SCT036 28/20 Q1017
MWCR 160200Z 28005KT 9999 BKN016 BKN035 26/24 Q1018
MWCB 160000Z 12007KT 9999 SCT016 27/23 Q1017